sensor_id;sensor_type;location;lat;lon;timestamp;pressure;altitude;pressure_sealevel;temperature;humidity
75447;BME280;64024;55.820;37.574;2022-12-31T00:01:49;98237.19;;;15.04;52.02
75447;BME280;64024;55.820;37.574;2022-12-31T00:04:14;98228.06;;;15.05;52.24
75447;BME280;64024;55.820;37.574;2022-12-31T00:06:40;98228.63;;;15.07;51.98
75447;BME280;64024;55.820;37.574;2022-12-31T00:09:06;98231.31;;;15.07;51.95
75447;BME280;64024;55.820;37.574;2022-12-31T00:11:34;98220.06;;;15.05;52.03
75447;BME280;64024;55.820;37.574;2022-12-31T00:14:00;98224.59;;;15.04;52.10
75447;BME280;64024;55.820;37.574;2022-12-31T00:16:34;98229.16;;;15.04;52.09
75447;BME280;64024;55.820;37.574;2022-12-31T00:19:01;98222.47;;;15.01;51.89
75447;BME280;64024;55.820;37.574;2022-12-31T00:21:29;98222.72;;;15.00;51.90
75447;BME280;64024;55.820;37.574;2022-12-31T00:23:56;98217.38;;;15.00;51.95
75447;BME280;64024;55.820;37.574;2022-12-31T00:26:25;98209.59;;;14.98;52.04
75447;BME280;64024;55.820;37.574;2022-12-31T00:28:53;98209.84;;;14.97;52.17
75447;BME280;64024;55.820;37.574;2022-12-31T00:31:24;98208.25;;;14.96;52.26
75447;BME280;64024;55.820;37.574;2022-12-31T00:33:50;98210.13;;;14.95;51.89
75447;BME280;64024;55.820;37.574;2022-12-31T00:36:19;98202.91;;;14.96;52.01
75447;BME280;64024;55.820;37.574;2022-12-31T00:38:47;98206.66;;;14.95;52.21
75447;BME280;64024;55.820;37.574;2022-12-31T00:41:13;98202.38;;;14.94;52.18
75447;BME280;64024;55.820;37.574;2022-12-31T00:43:40;98211.19;;;14.94;51.99
75447;BME280;64024;55.820;37.574;2022-12-31T00:46:07;98210.13;;;14.95;52.51
75447;BME280;64024;55.820;37.574;2022-12-31T00:48:33;98207.19;;;14.97;52.46
75447;BME280;64024;55.820;37.574;2022-12-31T00:51:00;98207.19;;;14.97;52.08
75447;BME280;64024;55.820;37.574;2022-12-31T00:53:27;98202.91;;;14.96;52.07
75447;BME280;64024;55.820;37.574;2022-12-31T00:55:59;98205.56;;;14.96;51.89
75447;BME280;64024;55.820;37.574;2022-12-31T00:58:25;98209.31;;;14.95;52.32
75447;BME280;64024;55.820;37.574;2022-12-31T01:00:51;98204.25;;;14.93;52.29
75447;BME280;64024;55.820;37.574;2022-12-31T01:03:17;98207.44;;;14.90;51.91
75447;BME280;64024;55.820;37.574;2022-12-31T01:05:42;98203.41;;;14.87;51.85
75447;BME280;64024;55.820;37.574;2022-12-31T01:08:08;98202.59;;;14.87;51.86
75447;BME280;64024;55.820;37.574;2022-12-31T01:10:34;98196.72;;;14.85;52.09
75447;BME280;64024;55.820;37.574;2022-12-31T01:13:18;98210.34;;;14.83;51.74
75447;BME280;64024;55.820;37.574;2022-12-31T01:15:44;98194.78;;;14.80;51.75
75447;BME280;64024;55.820;37.574;2022-12-31T01:18:11;98200.69;;;14.77;51.62
75447;BME280;64024;55.820;37.574;2022-12-31T01:20:39;98200.13;;;14.75;52.07
75447;BME280;64024;55.820;37.574;2022-12-31T01:23:06;98199.31;;;14.75;52.03
75447;BME280;64024;55.820;37.574;2022-12-31T01:25:37;98209.50;;;14.73;52.12
75447;BME280;64024;55.820;37.574;2022-12-31T01:28:04;98203.59;;;14.71;51.77
75447;BME280;64024;55.820;37.574;2022-12-31T01:30:31;98206.53;;;14.69;52.12
75447;BME280;64024;55.820;37.574;2022-12-31T01:32:56;98208.66;;;14.67;51.76
75447;BME280;64024;55.820;37.574;2022-12-31T01:35:23;98210.78;;;14.65;52.19
75447;BME280;64024;55.820;37.574;2022-12-31T01:37:48;98213.72;;;14.63;51.94
75447;BME280;64024;55.820;37.574;2022-12-31T01:40:14;98205.94;;;14.62;52.16
75447;BME280;64024;55.820;37.574;2022-12-31T01:42:40;98210.50;;;14.61;51.86
75447;BME280;64024;55.820;37.574;2022-12-31T01:45:10;98218.53;;;14.61;52.10
75447;BME280;64024;55.820;37.574;2022-12-31T01:47:49;98211.56;;;14.60;51.86
75447;BME280;64024;55.820;37.574;2022-12-31T01:50:42;98213.44;;;14.60;52.04
75447;BME280;64024;55.820;37.574;2022-12-31T01:53:11;98205.94;;;14.57;51.92
75447;BME280;64024;55.820;37.574;2022-12-31T01:55:43;98211.00;;;14.53;51.78
75447;BME280;64024;55.820;37.574;2022-12-31T01:58:19;98211.78;;;14.54;52.16
75447;BME280;64024;55.820;37.574;2022-12-31T02:00:46;98208.59;;;14.52;52.18
75447;BME280;64024;55.820;37.574;2022-12-31T02:03:14;98211.50;;;14.50;51.77
75447;BME280;64024;55.820;37.574;2022-12-31T02:05:49;98206.16;;;14.50;52.27
75447;BME280;64024;55.820;37.574;2022-12-31T02:08:16;98212.81;;;14.48;51.82
75447;BME280;64024;55.820;37.574;2022-12-31T02:10:42;98208.50;;;14.47;51.84
75447;BME280;64024;55.820;37.574;2022-12-31T02:13:08;98203.44;;;14.45;52.09
75447;BME280;64024;55.820;37.574;2022-12-31T02:15:41;98205.28;;;14.45;52.16
75447;BME280;64024;55.820;37.574;2022-12-31T02:18:41;98206.09;;;14.45;51.93
75447;BME280;64024;55.820;37.574;2022-12-31T02:27:09;98211.94;;;14.42;52.11
75447;BME280;64024;55.820;37.574;2022-12-31T02:29:53;98216.75;;;14.40;51.76
75447;BME280;64024;55.820;37.574;2022-12-31T02:33:29;98211.41;;;14.40;52.47
75447;BME280;64024;55.820;37.574;2022-12-31T02:38:13;98216.47;;;14.36;52.11
75447;BME280;64024;55.820;37.574;2022-12-31T02:40:40;98212.19;;;14.35;52.30
75447;BME280;64024;55.820;37.574;2022-12-31T02:43:06;98210.56;;;14.34;52.20
75447;BME280;64024;55.820;37.574;2022-12-31T02:45:44;98215.38;;;14.32;52.04
75447;BME280;64024;55.820;37.574;2022-12-31T02:52:23;98222.59;;;14.32;52.34
75447;BME280;64024;55.820;37.574;2022-12-31T02:54:46;98224.69;;;14.30;52.00
75447;BME280;64024;55.820;37.574;2022-12-31T02:57:52;98219.88;;;14.27;52.10
75447;BME280;64024;55.820;37.574;2022-12-31T03:00:11;98225.47;;;14.25;52.39
75447;BME280;64024;55.820;37.574;2022-12-31T03:02:58;98223.88;;;14.24;52.18
75447;BME280;64024;55.820;37.574;2022-12-31T03:05:30;98220.41;;;14.24;52.13
75447;BME280;64024;55.820;37.574;2022-12-31T03:07:56;98223.31;;;14.22;52.12
75447;BME280;64024;55.820;37.574;2022-12-31T03:10:22;98220.63;;;14.22;52.05
75447;BME280;64024;55.820;37.574;2022-12-31T03:12:48;98218.78;;;14.23;52.48
75447;BME280;64024;55.820;37.574;2022-12-31T03:15:20;98220.63;;;14.22;52.66
75447;BME280;64024;55.820;37.574;2022-12-31T03:18:03;98218.53;;;14.24;53.26
75447;BME280;64024;55.820;37.574;2022-12-31T03:20:32;98214.78;;;14.25;53.35
75447;BME280;64024;55.820;37.574;2022-12-31T03:23:28;98222.28;;;14.28;54.25
75447;BME280;64024;55.820;37.574;2022-12-31T03:25:55;98226.03;;;14.27;54.25
75447;BME280;64024;55.820;37.574;2022-12-31T03:28:24;98231.38;;;14.27;54.54
75447;BME280;64024;55.820;37.574;2022-12-31T03:30:56;98227.91;;;14.27;54.76
75447;BME280;64024;55.820;37.574;2022-12-31T03:33:23;98222.28;;;14.28;54.52
75447;BME280;64024;55.820;37.574;2022-12-31T03:35:50;98227.91;;;14.27;54.60
75447;BME280;64024;55.820;37.574;2022-12-31T03:38:17;98226.03;;;14.27;54.59
75447;BME280;64024;55.820;37.574;2022-12-31T03:40:46;98234.84;;;14.28;54.38
75447;BME280;64024;55.820;37.574;2022-12-31T03:43:12;98233.50;;;14.25;54.30
75447;BME280;64024;55.820;37.574;2022-12-31T03:45:38;98230.59;;;14.27;53.89
75447;BME280;64024;55.820;37.574;2022-12-31T03:48:04;98233.50;;;14.25;54.00
75447;BME280;64024;55.820;37.574;2022-12-31T03:50:30;98242.56;;;14.24;54.35
75447;BME280;64024;55.820;37.574;2022-12-31T03:52:56;98243.66;;;14.23;54.18
75447;BME280;64024;55.820;37.574;2022-12-31T03:55:22;98245.25;;;14.24;54.10
75447;BME280;64024;55.820;37.574;2022-12-31T03:57:48;98238.31;;;14.23;54.34
75447;BME280;64024;55.820;37.574;2022-12-31T04:00:16;98231.88;;;14.24;54.00
75447;BME280;64024;55.820;37.574;2022-12-31T04:02:46;98232.69;;;14.25;54.11
75447;BME280;64024;55.820;37.574;2022-12-31T04:05:13;98245.50;;;14.23;54.04
75447;BME280;64024;55.820;37.574;2022-12-31T04:07:38;98235.88;;;14.22;54.08
75447;BME280;64024;55.820;37.574;2022-12-31T04:10:06;98244.94;;;14.21;53.92
75447;BME280;64024;55.820;37.574;2022-12-31T04:12:32;98248.69;;;14.20;54.14
75447;BME280;64024;55.820;37.574;2022-12-31T04:14:58;98254.28;;;14.18;53.82
75447;BME280;64024;55.820;37.574;2022-12-31T04:17:24;98264.44;;;14.16;53.58
75447;BME280;64024;55.820;37.574;2022-12-31T04:19:50;98260.16;;;14.15;53.62
75447;BME280;64024;55.820;37.574;2022-12-31T04:22:16;98259.59;;;14.13;53.99
75447;BME280;64024;55.820;37.574;2022-12-31T04:24:42;98257.19;;;14.11;53.60
75447;BME280;64024;55.820;37.574;2022-12-31T04:27:08;98257.41;;;14.10;53.93
75447;BME280;64024;55.820;37.574;2022-12-31T04:29:35;98272.63;;;14.09;53.49
75447;BME280;64024;55.820;37.574;2022-12-31T04:32:01;98272.09;;;14.07;53.80
75447;BME280;64024;55.820;37.574;2022-12-31T04:34:27;98277.44;;;14.07;53.51
75447;BME280;64024;55.820;37.574;2022-12-31T04:36:53;98283.84;;;14.06;53.62
75447;BME280;64024;55.820;37.574;2022-12-31T04:39:18;98282.22;;;14.05;53.52
75447;BME280;64024;55.820;37.574;2022-12-31T04:41:44;98290.75;;;14.02;53.54
75447;BME280;64024;55.820;37.574;2022-12-31T04:44:09;98289.97;;;14.02;53.66
75447;BME280;64024;55.820;37.574;2022-12-31T04:46:35;98289.41;;;14.00;53.66
75447;BME280;64024;55.820;37.574;2022-12-31T04:49:01;98292.88;;;14.00;53.94
75447;BME280;64024;55.820;37.574;2022-12-31T04:51:28;98294.19;;;13.98;53.89
75447;BME280;64024;55.820;37.574;2022-12-31T04:53:54;98299.53;;;13.98;53.51
75447;BME280;64024;55.820;37.574;2022-12-31T04:56:20;98306.97;;;13.96;53.42
75447;BME280;64024;55.820;37.574;2022-12-31T04:58:45;98310.72;;;13.95;53.62
75447;BME280;64024;55.820;37.574;2022-12-31T05:01:12;98312.81;;;13.92;53.86
75447;BME280;64024;55.820;37.574;2022-12-31T05:03:38;98308.28;;;13.93;53.80
75447;BME280;64024;55.820;37.574;2022-12-31T05:06:07;98326.19;;;13.92;53.81
75447;BME280;64024;55.820;37.574;2022-12-31T05:08:34;98323.78;;;13.91;53.58
75447;BME280;64024;55.820;37.574;2022-12-31T05:10:59;98326.19;;;13.92;54.10
75447;BME280;64024;55.820;37.574;2022-12-31T05:13:25;98331.78;;;13.91;53.67
75447;BME280;64024;55.820;37.574;2022-12-31T05:15:51;98335.25;;;13.91;53.38
75447;BME280;64024;55.820;37.574;2022-12-31T05:18:17;98344.56;;;13.89;53.50
75447;BME280;64024;55.820;37.574;2022-12-31T05:20:44;98329.38;;;13.89;53.77
75447;BME280;64024;55.820;37.574;2022-12-31T05:23:10;98359.00;;;13.88;53.37
75447;BME280;64024;55.820;37.574;2022-12-31T05:25:36;98361.66;;;13.88;53.70
75447;BME280;64024;55.820;37.574;2022-12-31T05:28:02;98370.75;;;13.87;53.30
75447;BME280;64024;55.820;37.574;2022-12-31T05:30:28;98370.75;;;13.87;53.31
75447;BME280;64024;55.820;37.574;2022-12-31T05:32:53;98370.16;;;13.85;53.42
75447;BME280;64024;55.820;37.574;2022-12-31T05:35:19;98372.84;;;13.85;53.54
75447;BME280;64024;55.820;37.574;2022-12-31T05:37:45;98378.19;;;13.85;53.17
75447;BME280;64024;55.820;37.574;2022-12-31T05:40:11;98375.50;;;13.85;53.58
75447;BME280;64024;55.820;37.574;2022-12-31T05:42:37;98388.84;;;13.85;53.14
75447;BME280;64024;55.820;37.574;2022-12-31T05:45:03;98383.53;;;13.85;53.54
75447;BME280;64024;55.820;37.574;2022-12-31T05:47:29;98383.53;;;13.85;53.50
75447;BME280;64024;55.820;37.574;2022-12-31T05:49:55;98383.53;;;13.85;53.67
75447;BME280;64024;55.820;37.574;2022-12-31T05:52:21;98394.19;;;13.85;53.44
75447;BME280;64024;55.820;37.574;2022-12-31T05:54:46;98395.03;;;13.85;53.53
75447;BME280;64024;55.820;37.574;2022-12-31T05:57:12;98399.53;;;13.85;53.46
75447;BME280;64024;55.820;37.574;2022-12-31T05:59:38;98410.22;;;13.85;53.57
75447;BME280;64024;55.820;37.574;2022-12-31T06:02:04;98408.63;;;13.84;53.42
75447;BME280;64024;55.820;37.574;2022-12-31T06:04:29;98418.50;;;13.83;53.48
75447;BME280;64024;55.820;37.574;2022-12-31T06:06:55;98421.16;;;13.83;53.65
75447;BME280;64024;55.820;37.574;2022-12-31T06:09:21;98415.84;;;13.83;53.54
75447;BME280;64024;55.820;37.574;2022-12-31T06:11:47;98439.88;;;13.83;53.53
75447;BME280;64024;55.820;37.574;2022-12-31T06:14:13;98433.72;;;13.83;53.83
75447;BME280;64024;55.820;37.574;2022-12-31T06:16:39;98445.22;;;13.83;53.49
75447;BME280;64024;55.820;37.574;2022-12-31T06:19:06;98444.94;;;13.85;53.63
75447;BME280;64024;55.820;37.574;2022-12-31T06:21:31;98457.50;;;13.84;53.66
75447;BME280;64024;55.820;37.574;2022-12-31T06:23:57;98455.63;;;13.85;53.37
75447;BME280;64024;55.820;37.574;2022-12-31T06:26:24;98460.75;;;13.86;53.46
75447;BME280;64024;55.820;37.574;2022-12-31T06:28:50;98467.94;;;13.86;53.80
75447;BME280;64024;55.820;37.574;2022-12-31T06:31:16;98469.81;;;13.85;53.58
75447;BME280;64024;55.820;37.574;2022-12-31T06:33:42;98478.63;;;13.86;53.83
75447;BME280;64024;55.820;37.574;2022-12-31T06:36:12;98479.66;;;13.85;53.85
75447;BME280;64024;55.820;37.574;2022-12-31T06:38:39;98486.06;;;13.84;53.94
75447;BME280;64024;55.820;37.574;2022-12-31T06:41:07;98486.66;;;13.86;53.78
75447;BME280;64024;55.820;37.574;2022-12-31T06:43:34;98498.13;;;13.86;53.70
75447;BME280;64024;55.820;37.574;2022-12-31T06:46:01;98509.38;;;13.88;53.71
75447;BME280;64024;55.820;37.574;2022-12-31T06:48:27;98510.16;;;13.89;53.80
75447;BME280;64024;55.820;37.574;2022-12-31T06:50:53;98522.72;;;13.88;53.63
75447;BME280;64024;55.820;37.574;2022-12-31T06:53:19;98518.19;;;13.89;53.52
75447;BME280;64024;55.820;37.574;2022-12-31T06:55:47;98527.03;;;13.89;53.94
75447;BME280;64024;55.820;37.574;2022-12-31T06:58:14;98525.16;;;13.90;54.37
75447;BME280;64024;55.820;37.574;2022-12-31T07:00:49;98525.72;;;13.92;54.91
75447;BME280;64024;55.820;37.574;2022-12-31T07:03:44;98535.09;;;13.95;54.89
75447;BME280;64024;55.820;37.574;2022-12-31T07:06:29;98533.78;;;13.97;54.72
75447;BME280;64024;55.820;37.574;2022-12-31T07:12:01;98534.84;;;13.96;54.80
75447;BME280;64024;55.820;37.574;2022-12-31T07:14:36;98534.03;;;13.96;54.47
75447;BME280;64024;55.820;37.574;2022-12-31T07:17:30;98536.47;;;13.97;54.65
75447;BME280;64024;55.820;37.574;2022-12-31T07:20:08;98541.56;;;13.99;54.56
75447;BME280;64024;55.820;37.574;2022-12-31T07:22:35;98548.78;;;13.98;54.69
75447;BME280;64024;55.820;37.574;2022-12-31T07:25:01;98558.41;;;13.99;54.78
75447;BME280;64024;55.820;37.574;2022-12-31T07:43:06;98571.41;;;14.12;54.51
75447;BME280;64024;55.820;37.574;2022-12-31T07:45:49;98581.03;;;14.13;54.56
75447;BME280;64024;55.820;37.574;2022-12-31T07:48:25;98575.44;;;14.15;54.44
75447;BME280;64024;55.820;37.574;2022-12-31T07:50:51;98575.19;;;14.16;54.80
75447;BME280;64024;55.820;37.574;2022-12-31T07:53:19;98581.13;;;14.18;54.22
75447;BME280;64024;55.820;37.574;2022-12-31T07:55:45;98578.19;;;14.20;54.31
75447;BME280;64024;55.820;37.574;2022-12-31T07:58:18;98583.03;;;14.23;54.46
75447;BME280;64024;55.820;37.574;2022-12-31T08:00:47;98586.53;;;14.24;54.17
75447;BME280;64024;55.820;37.574;2022-12-31T08:03:40;98589.50;;;14.27;54.15
75447;BME280;64024;55.820;37.574;2022-12-31T08:13:59;98586.09;;;14.32;53.84
75447;BME280;64024;55.820;37.574;2022-12-31T08:16:25;98604.81;;;14.32;53.72
75447;BME280;64024;55.820;37.574;2022-12-31T08:18:51;98609.88;;;14.33;53.53
75447;BME280;64024;55.820;37.574;2022-12-31T08:26:46;98626.78;;;14.39;53.41
75447;BME280;64024;55.820;37.574;2022-12-31T08:29:34;98624.44;;;14.42;53.33
75447;BME280;64024;55.820;37.574;2022-12-31T08:34:50;98624.69;;;14.19;52.67
75447;BME280;64024;55.820;37.574;2022-12-31T08:37:33;98594.38;;;14.13;52.58
75447;BME280;64024;55.820;37.574;2022-12-31T08:40:25;98617.09;;;14.11;52.67
75447;BME280;64024;55.820;37.574;2022-12-31T08:43:14;98606.63;;;14.09;52.35
75447;BME280;64024;55.820;37.574;2022-12-31T08:45:50;98604.75;;;14.10;52.70
75447;BME280;64024;55.820;37.574;2022-12-31T08:48:24;98601.06;;;14.11;52.59
75447;BME280;64024;55.820;37.574;2022-12-31T08:50:54;98604.03;;;14.14;52.48
75447;BME280;64024;55.820;37.574;2022-12-31T08:53:20;98607.00;;;14.18;52.56
75447;BME280;64024;55.820;37.574;2022-12-31T08:55:48;98592.94;;;14.23;52.88
75447;BME280;64024;55.820;37.574;2022-12-31T08:58:41;98615.97;;;14.29;52.43
75447;BME280;64024;55.820;37.574;2022-12-31T09:01:10;98620.34;;;14.35;52.66
75447;BME280;64024;55.820;37.574;2022-12-31T09:04:14;98599.50;;;14.37;53.14
75447;BME280;64024;55.820;37.574;2022-12-31T09:06:51;98594.22;;;14.42;52.91
75447;BME280;64024;55.820;37.574;2022-12-31T09:15:03;98635.53;;;14.51;52.91
75447;BME280;64024;55.820;37.574;2022-12-31T09:17:44;98623.53;;;14.54;53.08
75447;BME280;64024;55.820;37.574;2022-12-31T09:20:24;98647.34;;;14.55;52.83
75447;BME280;64024;55.820;37.574;2022-12-31T09:22:50;98649.59;;;14.63;53.07
75447;BME280;64024;55.820;37.574;2022-12-31T09:25:18;98649.06;;;14.61;53.16
75447;BME280;64024;55.820;37.574;2022-12-31T09:31:01;98658.13;;;14.60;52.64
75447;BME280;64024;55.820;37.574;2022-12-31T09:36:00;98640.16;;;14.56;52.53
75447;BME280;64024;55.820;37.574;2022-12-31T09:38:43;98635.63;;;14.56;52.62
75447;BME280;64024;55.820;37.574;2022-12-31T09:41:15;98648.72;;;14.58;52.85
75447;BME280;64024;55.820;37.574;2022-12-31T10:01:20;98684.75;;;14.72;53.04
75447;BME280;64024;55.820;37.574;2022-12-31T10:06:35;98686.13;;;14.75;52.83
75447;BME280;64024;55.820;37.574;2022-12-31T10:12:17;98704.78;;;14.70;52.33
75447;BME280;64024;55.820;37.574;2022-12-31T10:17:54;98704.16;;;14.62;52.22
75447;BME280;64024;55.820;37.574;2022-12-31T10:20:32;98700.34;;;14.58;52.09
75447;BME280;64024;55.820;37.574;2022-12-31T10:33:42;98702.06;;;14.48;51.56
75447;BME280;64024;55.820;37.574;2022-12-31T10:36:30;98702.88;;;14.48;51.73
75447;BME280;64024;55.820;37.574;2022-12-31T10:39:14;98703.44;;;14.50;51.74
75447;BME280;64024;55.820;37.574;2022-12-31T11:01:05;98726.03;;;14.59;52.14
75447;BME280;64024;55.820;37.574;2022-12-31T11:17:29;98781.53;;;14.69;53.02
75447;BME280;64024;55.820;37.574;2022-12-31T11:25:33;98779.38;;;14.88;53.84
75447;BME280;64024;55.820;37.574;2022-12-31T11:31:27;98760.31;;;15.01;52.88
75447;BME280;64024;55.820;37.574;2022-12-31T11:34:22;98770.75;;;15.03;52.51
75447;BME280;64024;55.820;37.574;2022-12-31T11:39:46;98781.13;;;14.99;52.30
75447;BME280;64024;55.820;37.574;2022-12-31T11:54:07;98806.38;;;14.86;51.81
75447;BME280;64024;55.820;37.574;2022-12-31T11:56:40;98800.97;;;14.81;52.30
75447;BME280;64024;55.820;37.574;2022-12-31T11:59:11;98815.09;;;14.77;51.62
75447;BME280;64024;55.820;37.574;2022-12-31T12:01:51;98821.97;;;14.73;52.09
75447;BME280;64024;55.820;37.574;2022-12-31T12:04:19;98826.19;;;14.69;52.19
75447;BME280;64024;55.820;37.574;2022-12-31T12:06:45;98829.63;;;14.64;51.94
75447;BME280;64024;55.820;37.574;2022-12-31T12:09:14;98821.25;;;14.60;51.97
75447;BME280;64024;55.820;37.574;2022-12-31T12:11:44;98822.81;;;14.56;52.17
75447;BME280;64024;55.820;37.574;2022-12-31T12:14:33;98850.84;;;14.54;52.19
75447;BME280;64024;55.820;37.574;2022-12-31T12:17:01;98838.75;;;14.51;52.49
75447;BME280;64024;55.820;37.574;2022-12-31T12:19:30;98840.63;;;14.51;52.45
75447;BME280;64024;55.820;37.574;2022-12-31T12:21:56;98843.28;;;14.51;53.02
75447;BME280;64024;55.820;37.574;2022-12-31T12:24:27;98847.84;;;14.50;52.99
75447;BME280;64024;55.820;37.574;2022-12-31T12:26:54;98859.34;;;14.51;53.22
75447;BME280;64024;55.820;37.574;2022-12-31T12:29:30;98852.97;;;14.52;53.51
75447;BME280;64024;55.820;37.574;2022-12-31T12:32:03;98847.34;;;14.53;53.81
75447;BME280;64024;55.820;37.574;2022-12-31T12:34:32;98855.94;;;14.55;54.26
75447;BME280;64024;55.820;37.574;2022-12-31T12:36:59;98860.72;;;14.53;54.02
75447;BME280;64024;55.820;37.574;2022-12-31T12:39:30;98855.84;;;14.50;54.28
75447;BME280;64024;55.820;37.574;2022-12-31T12:44:30;98846.25;;;14.37;54.02
75447;BME280;64024;55.820;37.574;2022-12-31T12:46:57;98854.44;;;14.31;54.53
75447;BME280;64024;55.820;37.574;2022-12-31T12:49:27;98863.16;;;14.26;53.90
75447;BME280;64024;55.820;37.574;2022-12-31T12:52:02;98845.44;;;14.20;53.70
75447;BME280;64024;55.820;37.574;2022-12-31T13:05:35;98855.22;;;13.98;53.05
75447;BME280;64024;55.820;37.574;2022-12-31T13:11:37;98863.81;;;13.88;53.01
75447;BME280;64024;55.820;37.574;2022-12-31T13:16:34;98862.34;;;13.80;53.03
75447;BME280;64024;55.820;37.574;2022-12-31T13:19:29;98854.56;;;13.79;52.53
75447;BME280;64024;55.820;37.574;2022-12-31T13:29:55;98852.78;;;13.56;52.32
75447;BME280;64024;55.820;37.574;2022-12-31T13:32:38;98858.03;;;13.51;51.97
75447;BME280;64024;55.820;37.574;2022-12-31T13:37:50;98850.03;;;13.39;52.21
75447;BME280;64024;55.820;37.574;2022-12-31T13:43:18;98855.41;;;13.27;51.94
75447;BME280;64024;55.820;37.574;2022-12-31T13:45:53;98863.25;;;13.22;52.34
75447;BME280;64024;55.820;37.574;2022-12-31T13:48:35;98842.63;;;13.17;52.35
75447;BME280;64024;55.820;37.574;2022-12-31T13:54:02;98852.03;;;13.20;53.21
75447;BME280;64024;55.820;37.574;2022-12-31T13:56:35;98853.22;;;13.24;53.77
75447;BME280;64024;55.820;37.574;2022-12-31T13:59:26;98861.66;;;13.33;54.12
75447;BME280;64024;55.820;37.574;2022-12-31T14:04:38;98853.28;;;13.41;54.35
75447;BME280;64024;55.820;37.574;2022-12-31T14:09:36;98845.97;;;13.48;54.75
75447;BME280;64024;55.820;37.574;2022-12-31T14:20:27;98846.50;;;13.62;55.82
75447;BME280;64024;55.820;37.574;2022-12-31T14:26:01;98829.75;;;13.66;56.17
75447;BME280;64024;55.820;37.574;2022-12-31T14:28:34;98830.09;;;13.70;56.08
75447;BME280;64024;55.820;37.574;2022-12-31T14:36:52;98833.22;;;13.79;56.21
75447;BME280;64024;55.820;37.574;2022-12-31T14:39:53;98841.78;;;13.81;56.34
75447;BME280;64024;55.820;37.574;2022-12-31T14:42:39;98847.69;;;13.83;56.06
75447;BME280;64024;55.820;37.574;2022-12-31T14:45:39;98843.16;;;13.83;55.93
75447;BME280;64024;55.820;37.574;2022-12-31T14:50:47;98835.16;;;13.83;55.65
75447;BME280;64024;55.820;37.574;2022-12-31T14:53:23;98835.97;;;13.84;56.00
75447;BME280;64024;55.820;37.574;2022-12-31T14:56:23;98833.06;;;13.85;55.93
75447;BME280;64024;55.820;37.574;2022-12-31T14:58:59;98833.63;;;13.87;55.51
75447;BME280;64024;55.820;37.574;2022-12-31T15:01:26;98831.75;;;13.88;55.44
75447;BME280;64024;55.820;37.574;2022-12-31T15:03:54;98844.06;;;13.89;55.34
75447;BME280;64024;55.820;37.574;2022-12-31T15:09:18;98842.31;;;13.95;55.29
75447;BME280;64024;55.820;37.574;2022-12-31T15:22:45;98833.91;;;14.03;56.14
75447;BME280;64024;55.820;37.574;2022-12-31T15:25:31;98834.47;;;14.05;56.92
75447;BME280;64024;55.820;37.574;2022-12-31T15:28:00;98833.66;;;14.04;56.65
75447;BME280;64024;55.820;37.574;2022-12-31T15:30:46;98829.13;;;14.05;56.47
75447;BME280;64024;55.820;37.574;2022-12-31T15:35:52;98829.47;;;14.08;56.17
75447;BME280;64024;55.820;37.574;2022-12-31T15:38:33;98820.88;;;14.06;56.15
75447;BME280;64024;55.820;37.574;2022-12-31T15:40:59;98809.63;;;14.04;56.15
75447;BME280;64024;55.820;37.574;2022-12-31T15:43:39;98820.06;;;14.06;56.55
75447;BME280;64024;55.820;37.574;2022-12-31T15:46:15;98822.72;;;14.06;56.42
75447;BME280;64024;55.820;37.574;2022-12-31T15:48:48;98822.50;;;14.07;56.02
75447;BME280;64024;55.820;37.574;2022-12-31T15:51:47;98815.53;;;14.06;55.87
75447;BME280;64024;55.820;37.574;2022-12-31T15:54:41;98811.56;;;14.09;56.17
75447;BME280;64024;55.820;37.574;2022-12-31T15:57:38;98816.09;;;14.08;55.76
75447;BME280;64024;55.820;37.574;2022-12-31T16:00:17;98811.56;;;14.09;55.63
75447;BME280;64024;55.820;37.574;2022-12-31T16:02:44;98814.50;;;14.07;55.55
75447;BME280;64024;55.820;37.574;2022-12-31T16:05:25;98817.16;;;14.07;55.49
75447;BME280;64024;55.820;37.574;2022-12-31T16:07:56;98819.84;;;14.07;55.80
75447;BME280;64024;55.820;37.574;2022-12-31T16:10:27;98812.28;;;14.04;55.61
75447;BME280;64024;55.820;37.574;2022-12-31T16:12:55;98824.84;;;14.04;55.68
75447;BME280;64024;55.820;37.574;2022-12-31T16:15:25;98825.09;;;14.02;55.95
75447;BME280;64024;55.820;37.574;2022-12-31T16:18:17;98817.88;;;14.03;55.81
75447;BME280;64024;55.820;37.574;2022-12-31T16:20:45;98827.19;;;14.00;55.99
75447;BME280;64024;55.820;37.574;2022-12-31T16:23:23;98827.97;;;14.01;55.79
75447;BME280;64024;55.820;37.574;2022-12-31T16:25:51;98824.50;;;14.00;56.29
75447;BME280;64024;55.820;37.574;2022-12-31T16:28:19;98826.38;;;14.00;56.36
75447;BME280;64024;55.820;37.574;2022-12-31T16:30:57;98814.63;;;14.01;56.49
75447;BME280;64024;55.820;37.574;2022-12-31T16:33:25;98815.44;;;14.01;56.67
75447;BME280;64024;55.820;37.574;2022-12-31T16:35:56;98808.25;;;14.02;57.07
75447;BME280;64024;55.820;37.574;2022-12-31T16:38:29;98810.94;;;14.02;57.15
75447;BME280;64024;55.820;37.574;2022-12-31T16:43:37;98802.91;;;14.02;57.13
75447;BME280;64024;55.820;37.574;2022-12-31T16:46:25;98793.59;;;14.04;57.75
75447;BME280;64024;55.820;37.574;2022-12-31T16:49:00;98795.44;;;14.04;57.87
75447;BME280;64024;55.820;37.574;2022-12-31T16:51:30;98801.84;;;14.03;57.48
75447;BME280;64024;55.820;37.574;2022-12-31T16:53:57;98794.66;;;14.03;57.95
75447;BME280;64024;55.820;37.574;2022-12-31T16:56:33;98796.00;;;14.06;58.07
75447;BME280;64024;55.820;37.574;2022-12-31T16:59:03;98788.56;;;14.08;57.86
75447;BME280;64024;55.820;37.574;2022-12-31T17:01:33;98790.44;;;14.07;57.73
75447;BME280;64024;55.820;37.574;2022-12-31T17:04:08;98796.59;;;14.08;57.45
75447;BME280;64024;55.820;37.574;2022-12-31T17:06:35;98787.75;;;14.07;57.46